Main page
METAR-TAF:

METAR-TAF

Airports :

Ashgabat International Airport

Ashgabat, Turkmenistan

latitude: 37-59N, longitude: 058-22E, elevation: 211 m

Current weather observation

The report was made 18 minutes ago, at 14:00 UTC
Wind 6 kt from the East
Temperature 38°C
Humidity 16%
Pressure 1003 hPa
Visibility 10 km or more

METAR: UTAA 181400Z 09006KT 9999 NSC 38/08 Q1003 R88/70D NOSIG

Time: 19:18 (14:18 UTC)

Forecast

The report was made 3 hours and 28 minutes ago, at 10:50 UTC
Forecast valid from 18 at 11 UTC to 19 at 12 UTC
Wind 16 kt from the East/Southeast
Visibility: 6000 m
Scattered clouds at a height of 5000 ft
Temporary
from 18 at 11 UTC to 18 at 14 UTC
Wind 18 kt from the North/Northeast
Temporary
from 18 at 14 UTC to 18 at 20 UTC
Wind 12 kt from the East with gusts up to 22 kt
Becoming
from 19 at 00 UTC to 19 at 02 UTC
Wind 18 kt from the West

TAF: UTAA 181050Z 1811/1912 12016KT 6000 SCT050 530009 TEMPO 1811/1814 02018KT TEMPO 1814/1820 09012G22KT BECMG 1900/1902 27018KT

Weather observations and forecasts of more than 4000 airports (METAR and TAF reports).

The available stations are represented by yellow and red dots on the map.

Hover mouse over dot to see the name of the station.

Then click to see weather observations and forecasts.

To change the map : click on the green buttons with a black cross to zoom in, on the green button with a dash to zoom out, or on the green arrows for adjacent maps.


METAR-TAF: